sensor_id;sensor_type;location;lat;lon;timestamp;pressure;altitude;pressure_sealevel;temperature
15360;BMP280;7779;49.596;11.070;2023-11-21T00:01:37;97715.50;;;12.29
15360;BMP280;7779;49.596;11.070;2023-11-21T00:04:03;97718.03;;;12.29
15360;BMP280;7779;49.596;11.070;2023-11-21T00:06:29;97718.81;;;12.28
15360;BMP280;7779;49.596;11.070;2023-11-21T00:08:56;97703.72;;;12.28
15360;BMP280;7779;49.596;11.070;2023-11-21T00:11:22;97716.44;;;12.31
15360;BMP280;7779;49.596;11.070;2023-11-21T00:13:47;97719.78;;;12.32
15360;BMP280;7779;49.596;11.070;2023-11-21T00:16:13;97716.34;;;12.30
15360;BMP280;7779;49.596;11.070;2023-11-21T00:18:39;97716.34;;;12.30
15360;BMP280;7779;49.596;11.070;2023-11-21T00:21:05;97718.94;;;12.31
15360;BMP280;7779;49.596;11.070;2023-11-21T00:23:31;97712.19;;;12.30
15360;BMP280;7779;49.596;11.070;2023-11-21T00:25:56;97714.66;;;12.29
15360;BMP280;7779;49.596;11.070;2023-11-21T00:28:22;97716.19;;;12.25
15360;BMP280;7779;49.596;11.070;2023-11-21T00:30:48;97715.38;;;12.26
15360;BMP280;7779;49.596;11.070;2023-11-21T00:33:14;97716.97;;;12.24
15360;BMP280;7779;49.596;11.070;2023-11-21T00:35:39;97700.19;;;12.23
15360;BMP280;7779;49.596;11.070;2023-11-21T00:38:05;97701.91;;;12.24
15360;BMP280;7779;49.596;11.070;2023-11-21T00:40:32;97701.13;;;12.25
15360;BMP280;7779;49.596;11.070;2023-11-21T00:42:58;97711.19;;;12.27
15360;BMP280;7779;49.596;11.070;2023-11-21T00:45:24;97707.06;;;12.27
15360;BMP280;7779;49.596;11.070;2023-11-21T00:47:50;97710.50;;;12.29
15360;BMP280;7779;49.596;11.070;2023-11-21T00:50:16;97704.72;;;12.32
15360;BMP280;7779;49.596;11.070;2023-11-21T00:52:41;97708.06;;;12.32
15360;BMP280;7779;49.596;11.070;2023-11-21T00:55:08;97706.50;;;12.34
15360;BMP280;7779;49.596;11.070;2023-11-21T00:57:35;97711.53;;;12.34
15360;BMP280;7779;49.596;11.070;2023-11-21T01:00:01;97707.41;;;12.36
15360;BMP280;7779;49.596;11.070;2023-11-21T01:02:26;97706.59;;;12.37
15360;BMP280;7779;49.596;11.070;2023-11-21T01:04:52;97709.13;;;12.37
15360;BMP280;7779;49.596;11.070;2023-11-21T01:07:19;97710.84;;;12.38
15360;BMP280;7779;49.596;11.070;2023-11-21T01:09:46;97715.97;;;12.41
15360;BMP280;7779;49.596;11.070;2023-11-21T01:12:12;97712.66;;;12.42
15360;BMP280;7779;49.596;11.070;2023-11-21T01:14:37;97719.38;;;12.43
15360;BMP280;7779;49.596;11.070;2023-11-21T01:17:03;97717.75;;;12.44
15360;BMP280;7779;49.596;11.070;2023-11-21T01:19:30;97716.09;;;12.44
15360;BMP280;7779;49.596;11.070;2023-11-21T01:21:56;97717.75;;;12.44
15360;BMP280;7779;49.596;11.070;2023-11-21T01:24:23;97717.81;;;12.45
15360;BMP280;7779;49.596;11.070;2023-11-21T01:26:49;97712.81;;;12.45
15360;BMP280;7779;49.596;11.070;2023-11-21T01:29:15;97713.66;;;12.46
15360;BMP280;7779;49.596;11.070;2023-11-21T01:31:41;97710.31;;;12.47
15360;BMP280;7779;49.596;11.070;2023-11-21T01:34:07;97712.84;;;12.47
15360;BMP280;7779;49.596;11.070;2023-11-21T01:36:33;97716.22;;;12.47
15360;BMP280;7779;49.596;11.070;2023-11-21T01:38:59;97714.50;;;12.46
15360;BMP280;7779;49.596;11.070;2023-11-21T01:41:28;97712.81;;;12.45
15360;BMP280;7779;49.596;11.070;2023-11-21T01:43:55;97707.66;;;12.42
15360;BMP280;7779;49.596;11.070;2023-11-21T01:46:21;97708.44;;;12.41
15360;BMP280;7779;49.596;11.070;2023-11-21T01:48:49;97708.44;;;12.41
15360;BMP280;7779;49.596;11.070;2023-11-21T01:51:16;97701.66;;;12.39
15360;BMP280;7779;49.596;11.070;2023-11-21T01:53:42;97712.53;;;12.39
15360;BMP280;7779;49.596;11.070;2023-11-21T01:56:09;97700.72;;;12.37
15360;BMP280;7779;49.596;11.070;2023-11-21T01:58:35;97704.09;;;12.37
15360;BMP280;7779;49.596;11.070;2023-11-21T02:01:02;97703.25;;;12.37
15360;BMP280;7779;49.596;11.070;2023-11-21T02:03:28;97698.22;;;12.37
15360;BMP280;7779;49.596;11.070;2023-11-21T02:05:53;97699.06;;;12.37
15360;BMP280;7779;49.596;11.070;2023-11-21T02:08:19;97699.91;;;12.38
15360;BMP280;7779;49.596;11.070;2023-11-21T02:10:45;97696.56;;;12.37
15360;BMP280;7779;49.596;11.070;2023-11-21T02:13:11;97699.88;;;12.36
15360;BMP280;7779;49.596;11.070;2023-11-21T02:15:38;97704.91;;;12.36
15360;BMP280;7779;49.596;11.070;2023-11-21T02:18:04;97694.88;;;12.36
15360;BMP280;7779;49.596;11.070;2023-11-21T02:20:32;97698.22;;;12.37
15360;BMP280;7779;49.596;11.070;2023-11-21T02:23:00;97694.03;;;12.37
15360;BMP280;7779;49.596;11.070;2023-11-21T02:25:28;97694.09;;;12.39
15360;BMP280;7779;49.596;11.070;2023-11-21T02:27:56;97698.34;;;12.40
15360;BMP280;7779;49.596;11.070;2023-11-21T02:30:22;97695.78;;;12.38
15360;BMP280;7779;49.596;11.070;2023-11-21T02:32:51;97691.66;;;12.40
15360;BMP280;7779;49.596;11.070;2023-11-21T02:35:23;97690.00;;;12.41
15360;BMP280;7779;49.596;11.070;2023-11-21T02:37:52;97689.16;;;12.40
15360;BMP280;7779;49.596;11.070;2023-11-21T02:40:18;97690.84;;;12.41
15360;BMP280;7779;49.596;11.070;2023-11-21T02:42:50;97687.56;;;12.42
15360;BMP280;7779;49.596;11.070;2023-11-21T02:45:21;97699.31;;;12.43
15360;BMP280;7779;49.596;11.070;2023-11-21T02:47:47;97681.72;;;12.43
15360;BMP280;7779;49.596;11.070;2023-11-21T02:50:14;97687.56;;;12.42
15360;BMP280;7779;49.596;11.070;2023-11-21T02:52:40;97684.22;;;12.43
15360;BMP280;7779;49.596;11.070;2023-11-21T02:55:06;97693.50;;;12.44
15360;BMP280;7779;49.596;11.070;2023-11-21T02:57:35;97688.47;;;12.44
15360;BMP280;7779;49.596;11.070;2023-11-21T03:00:01;97694.41;;;12.46
15360;BMP280;7779;49.596;11.070;2023-11-21T03:02:28;97684.34;;;12.46
15360;BMP280;7779;49.596;11.070;2023-11-21T03:04:53;97681.91;;;12.48
15360;BMP280;7779;49.596;11.070;2023-11-21T03:07:19;97681.09;;;12.48
15360;BMP280;7779;49.596;11.070;2023-11-21T03:09:46;97687.78;;;12.48
15360;BMP280;7779;49.596;11.070;2023-11-21T03:12:11;97683.59;;;12.48
15360;BMP280;7779;49.596;11.070;2023-11-21T03:14:39;97680.31;;;12.49
15360;BMP280;7779;49.596;11.070;2023-11-21T03:17:05;97679.47;;;12.49
15360;BMP280;7779;49.596;11.070;2023-11-21T03:19:31;97682.75;;;12.48
15360;BMP280;7779;49.596;11.070;2023-11-21T03:21:56;97674.44;;;12.49
15360;BMP280;7779;49.596;11.070;2023-11-21T03:24:23;97685.34;;;12.49
15360;BMP280;7779;49.596;11.070;2023-11-21T03:26:49;97672.72;;;12.48
15360;BMP280;7779;49.596;11.070;2023-11-21T03:29:14;97684.47;;;12.49
15360;BMP280;7779;49.596;11.070;2023-11-21T03:31:40;97682.81;;;12.49
15360;BMP280;7779;49.596;11.070;2023-11-21T03:34:09;97691.13;;;12.48
15360;BMP280;7779;49.596;11.070;2023-11-21T03:36:35;97689.50;;;12.49
15360;BMP280;7779;49.596;11.070;2023-11-21T03:39:02;97688.63;;;12.48
15360;BMP280;7779;49.596;11.070;2023-11-21T03:41:27;97696.16;;;12.48
15360;BMP280;7779;49.596;11.070;2023-11-21T03:43:54;97699.56;;;12.49
15360;BMP280;7779;49.596;11.070;2023-11-21T03:46:19;97696.97;;;12.48
15360;BMP280;7779;49.596;11.070;2023-11-21T03:48:45;97694.41;;;12.46
15360;BMP280;7779;49.596;11.070;2023-11-21T03:51:11;97696.91;;;12.46
15360;BMP280;7779;49.596;11.070;2023-11-21T03:53:36;97696.13;;;12.47
15360;BMP280;7779;49.596;11.070;2023-11-21T03:56:03;97696.16;;;12.48
15360;BMP280;7779;49.596;11.070;2023-11-21T03:58:29;97692.81;;;12.48
15360;BMP280;7779;49.596;11.070;2023-11-21T04:00:55;97697.88;;;12.49
15360;BMP280;7779;49.596;11.070;2023-11-21T04:03:21;97696.22;;;12.50
15360;BMP280;7779;49.596;11.070;2023-11-21T04:05:46;97703.75;;;12.50
15360;BMP280;7779;49.596;11.070;2023-11-21T04:08:12;97704.66;;;12.50
15360;BMP280;7779;49.596;11.070;2023-11-21T04:10:38;97692.88;;;12.49
15360;BMP280;7779;49.596;11.070;2023-11-21T04:13:05;97708.72;;;12.48
15360;BMP280;7779;49.596;11.070;2023-11-21T04:15:32;97704.59;;;12.49
15360;BMP280;7779;49.596;11.070;2023-11-21T04:17:58;97705.44;;;12.49
15360;BMP280;7779;49.596;11.070;2023-11-21T04:20:24;97709.59;;;12.49
15360;BMP280;7779;49.596;11.070;2023-11-21T04:22:50;97706.28;;;12.50
15360;BMP280;7779;49.596;11.070;2023-11-21T04:25:16;97702.06;;;12.49
15360;BMP280;7779;49.596;11.070;2023-11-21T04:27:44;97707.94;;;12.49
15360;BMP280;7779;49.596;11.070;2023-11-21T04:30:13;97710.44;;;12.49
15360;BMP280;7779;49.596;11.070;2023-11-21T04:32:39;97713.03;;;12.51
15360;BMP280;7779;49.596;11.070;2023-11-21T04:35:05;97711.25;;;12.48
15360;BMP280;7779;49.596;11.070;2023-11-21T04:37:31;97711.31;;;12.50
15360;BMP280;7779;49.596;11.070;2023-11-21T04:39:57;97711.31;;;12.50
15360;BMP280;7779;49.596;11.070;2023-11-21T04:42:23;97708.78;;;12.50
15360;BMP280;7779;49.596;11.070;2023-11-21T04:44:49;97712.19;;;12.50
15360;BMP280;7779;49.596;11.070;2023-11-21T04:47:15;97713.03;;;12.51
15360;BMP280;7779;49.596;11.070;2023-11-21T04:49:42;97709.66;;;12.50
15360;BMP280;7779;49.596;11.070;2023-11-21T04:52:09;97707.16;;;12.50
15360;BMP280;7779;49.596;11.070;2023-11-21T04:54:35;97712.19;;;12.50
15360;BMP280;7779;49.596;11.070;2023-11-21T04:57:01;97716.31;;;12.50
15360;BMP280;7779;49.596;11.070;2023-11-21T04:59:27;97718.78;;;12.48
15360;BMP280;7779;49.596;11.070;2023-11-21T05:01:53;97719.72;;;12.50
15360;BMP280;7779;49.596;11.070;2023-11-21T05:04:20;97716.31;;;12.50
15360;BMP280;7779;49.596;11.070;2023-11-21T05:06:48;97715.53;;;12.51
15360;BMP280;7779;49.596;11.070;2023-11-21T05:09:14;97719.72;;;12.50
15360;BMP280;7779;49.596;11.070;2023-11-21T05:11:41;97723.09;;;12.51
15360;BMP280;7779;49.596;11.070;2023-11-21T05:14:07;97723.94;;;12.51
15360;BMP280;7779;49.596;11.070;2023-11-21T05:16:34;97726.50;;;12.53
15360;BMP280;7779;49.596;11.070;2023-11-21T05:19:00;97733.25;;;12.54
15360;BMP280;7779;49.596;11.070;2023-11-21T05:21:27;97729.06;;;12.54
15360;BMP280;7779;49.596;11.070;2023-11-21T05:23:55;97733.25;;;12.54
15360;BMP280;7779;49.596;11.070;2023-11-21T05:26:20;97738.28;;;12.54
15360;BMP280;7779;49.596;11.070;2023-11-21T05:28:46;97739.06;;;12.53
15360;BMP280;7779;49.596;11.070;2023-11-21T05:31:12;97741.50;;;12.51
15360;BMP280;7779;49.596;11.070;2023-11-21T05:33:38;97742.34;;;12.50
15360;BMP280;7779;49.596;11.070;2023-11-21T05:36:04;97746.47;;;12.50
15360;BMP280;7779;49.596;11.070;2023-11-21T05:38:29;97743.03;;;12.48
15360;BMP280;7779;49.596;11.070;2023-11-21T05:40:55;97743.88;;;12.47
15360;BMP280;7779;49.596;11.070;2023-11-21T05:43:21;97755.69;;;12.49
15360;BMP280;7779;49.596;11.070;2023-11-21T05:45:47;97749.81;;;12.49
15360;BMP280;7779;49.596;11.070;2023-11-21T05:48:12;97754.81;;;12.49
15360;BMP280;7779;49.596;11.070;2023-11-21T05:50:38;97758.13;;;12.48
15360;BMP280;7779;49.596;11.070;2023-11-21T05:53:04;97751.41;;;12.47
15360;BMP280;7779;49.596;11.070;2023-11-21T05:55:29;97753.91;;;12.47
15360;BMP280;7779;49.596;11.070;2023-11-21T05:57:55;97759.78;;;12.48
15360;BMP280;7779;49.596;11.070;2023-11-21T06:00:21;97761.44;;;12.47
15360;BMP280;7779;49.596;11.070;2023-11-21T06:02:52;97764.75;;;12.46
15360;BMP280;7779;49.596;11.070;2023-11-21T06:05:22;97769.75;;;12.46
15360;BMP280;7779;49.596;11.070;2023-11-21T06:07:53;97770.56;;;12.45
15360;BMP280;7779;49.596;11.070;2023-11-21T06:10:21;97762.22;;;12.46
15360;BMP280;7779;49.596;11.070;2023-11-21T06:12:48;97759.72;;;12.46
15360;BMP280;7779;49.596;11.070;2023-11-21T06:15:14;97766.47;;;12.47
15360;BMP280;7779;49.596;11.070;2023-11-21T06:17:40;97764.88;;;12.49
15360;BMP280;7779;49.596;11.070;2023-11-21T06:20:11;97771.59;;;12.50
15360;BMP280;7779;49.596;11.070;2023-11-21T06:22:43;97781.66;;;12.50
15360;BMP280;7779;49.596;11.070;2023-11-21T06:25:10;97780.88;;;12.51
15360;BMP280;7779;49.596;11.070;2023-11-21T06:27:43;97772.47;;;12.50
15360;BMP280;7779;49.596;11.070;2023-11-21T06:30:11;97780.88;;;12.51
15360;BMP280;7779;49.596;11.070;2023-11-21T06:32:38;97782.53;;;12.50
15360;BMP280;7779;49.596;11.070;2023-11-21T06:35:06;97795.13;;;12.52
15360;BMP280;7779;49.596;11.070;2023-11-21T06:37:32;97798.44;;;12.51
15360;BMP280;7779;49.596;11.070;2023-11-21T06:39:59;97798.38;;;12.49
15360;BMP280;7779;49.596;11.070;2023-11-21T06:42:26;97795.88;;;12.49
15360;BMP280;7779;49.596;11.070;2023-11-21T06:44:52;97808.50;;;12.51
15360;BMP280;7779;49.596;11.070;2023-11-21T06:47:20;97804.31;;;12.51
15360;BMP280;7779;49.596;11.070;2023-11-21T06:49:46;97810.31;;;12.55
15360;BMP280;7779;49.596;11.070;2023-11-21T06:52:14;97806.16;;;12.55
15360;BMP280;7779;49.596;11.070;2023-11-21T06:54:40;97813.75;;;12.57
15360;BMP280;7779;49.596;11.070;2023-11-21T06:57:06;97816.41;;;12.60
15360;BMP280;7779;49.596;11.070;2023-11-21T06:59:32;97818.09;;;12.61
15360;BMP280;7779;49.596;11.070;2023-11-21T07:01:57;97824.09;;;12.64
15360;BMP280;7779;49.596;11.070;2023-11-21T07:04:23;97828.34;;;12.65
15360;BMP280;7779;49.596;11.070;2023-11-21T07:06:52;97832.56;;;12.66
15360;BMP280;7779;49.596;11.070;2023-11-21T07:09:19;97828.41;;;12.67
15360;BMP280;7779;49.596;11.070;2023-11-21T07:11:48;97832.63;;;12.68
15360;BMP280;7779;49.596;11.070;2023-11-21T07:14:15;97835.22;;;12.69
15360;BMP280;7779;49.596;11.070;2023-11-21T07:16:41;97844.50;;;12.72
15360;BMP280;7779;49.596;11.070;2023-11-21T07:19:07;97841.28;;;12.74
15360;BMP280;7779;49.596;11.070;2023-11-21T07:21:34;97842.19;;;12.76
15360;BMP280;7779;49.596;11.070;2023-11-21T07:24:02;97853.28;;;12.80
15360;BMP280;7779;49.596;11.070;2023-11-21T07:26:29;97845.03;;;12.84
15360;BMP280;7779;49.596;11.070;2023-11-21T07:28:55;97845.97;;;12.86
15360;BMP280;7779;49.596;11.070;2023-11-21T07:31:22;97848.59;;;12.88
15360;BMP280;7779;49.596;11.070;2023-11-21T07:33:48;97852.94;;;12.92
15360;BMP280;7779;49.596;11.070;2023-11-21T07:36:15;97850.56;;;12.95
15360;BMP280;7779;49.596;11.070;2023-11-21T07:38:42;97854.09;;;13.00
15360;BMP280;7779;49.596;11.070;2023-11-21T07:41:09;97855.94;;;13.04
15360;BMP280;7779;49.596;11.070;2023-11-21T07:43:35;97856.03;;;13.07
15360;BMP280;7779;49.596;11.070;2023-11-21T07:46:02;97857.88;;;13.11
15360;BMP280;7779;49.596;11.070;2023-11-21T07:48:30;97857.09;;;13.12
15360;BMP280;7779;49.596;11.070;2023-11-21T07:50:57;97866.47;;;13.16
15360;BMP280;7779;49.596;11.070;2023-11-21T07:53:26;97861.63;;;13.21
15360;BMP280;7779;49.596;11.070;2023-11-21T07:55:54;97867.59;;;13.24
15360;BMP280;7779;49.596;11.070;2023-11-21T07:58:20;97871.91;;;13.27
15360;BMP280;7779;49.596;11.070;2023-11-21T08:00:46;97871.97;;;13.28
15360;BMP280;7779;49.596;11.070;2023-11-21T08:03:14;97871.22;;;13.30
15360;BMP280;7779;49.596;11.070;2023-11-21T08:05:40;97878.88;;;13.33
15360;BMP280;7779;49.596;11.070;2023-11-21T08:08:06;97873.03;;;13.34
15360;BMP280;7779;49.596;11.070;2023-11-21T08:10:31;97875.63;;;13.36
15360;BMP280;7779;49.596;11.070;2023-11-21T08:12:57;97871.50;;;13.38
15360;BMP280;7779;49.596;11.070;2023-11-21T08:15:23;97881.63;;;13.39
15360;BMP280;7779;49.596;11.070;2023-11-21T08:17:49;97882.59;;;13.43
15360;BMP280;7779;49.596;11.070;2023-11-21T08:20:15;97882.75;;;13.47
15360;BMP280;7779;49.596;11.070;2023-11-21T08:22:42;97886.25;;;13.51
15360;BMP280;7779;49.596;11.070;2023-11-21T08:25:08;97876.25;;;13.52
15360;BMP280;7779;49.596;11.070;2023-11-21T08:27:34;97883.03;;;13.55
15360;BMP280;7779;49.596;11.070;2023-11-21T08:30:06;97885.63;;;13.56
15360;BMP280;7779;49.596;11.070;2023-11-21T08:32:33;97882.38;;;13.59
15360;BMP280;7779;49.596;11.070;2023-11-21T08:35:01;97885.00;;;13.62
15360;BMP280;7779;49.596;11.070;2023-11-21T08:37:27;97883.38;;;13.64
15360;BMP280;7779;49.596;11.070;2023-11-21T08:39:58;97885.25;;;13.67
15360;BMP280;7779;49.596;11.070;2023-11-21T08:42:25;97881.97;;;13.70
15360;BMP280;7779;49.596;11.070;2023-11-21T08:44:50;97886.25;;;13.72
15360;BMP280;7779;49.596;11.070;2023-11-21T08:47:16;97891.41;;;13.75
15360;BMP280;7779;49.596;11.070;2023-11-21T08:49:42;97893.91;;;13.75
15360;BMP280;7779;49.596;11.070;2023-11-21T08:52:08;97893.91;;;13.75
15360;BMP280;7779;49.596;11.070;2023-11-21T08:54:34;97900.78;;;13.79
15360;BMP280;7779;49.596;11.070;2023-11-21T08:57:00;97899.16;;;13.81
15360;BMP280;7779;49.596;11.070;2023-11-21T08:59:26;97907.69;;;13.85
15360;BMP280;7779;49.596;11.070;2023-11-21T09:01:52;97906.19;;;13.90
15360;BMP280;7779;49.596;11.070;2023-11-21T09:04:18;97911.44;;;13.96
15360;BMP280;7779;49.596;11.070;2023-11-21T09:06:43;97920.81;;;14.00
15360;BMP280;7779;49.596;11.070;2023-11-21T09:09:09;97916.00;;;14.04
15360;BMP280;7779;49.596;11.070;2023-11-21T09:11:36;97922.91;;;14.09
15360;BMP280;7779;49.596;11.070;2023-11-21T09:14:03;97909.63;;;14.13
15360;BMP280;7779;49.596;11.070;2023-11-21T09:16:29;97921.53;;;14.17
15360;BMP280;7779;49.596;11.070;2023-11-21T09:18:55;97922.50;;;14.21
15360;BMP280;7779;49.596;11.070;2023-11-21T09:21:21;97920.88;;;14.23
15360;BMP280;7779;49.596;11.070;2023-11-21T09:23:48;97921.78;;;14.25
15360;BMP280;7779;49.596;11.070;2023-11-21T09:26:13;97931.97;;;14.28
15360;BMP280;7779;49.596;11.070;2023-11-21T09:28:43;97933.72;;;14.29
15360;BMP280;7779;49.596;11.070;2023-11-21T09:31:13;97929.59;;;14.31
15360;BMP280;7779;49.596;11.070;2023-11-21T09:33:43;97933.81;;;14.32
15360;BMP280;7779;49.596;11.070;2023-11-21T09:36:13;97935.59;;;14.34
15360;BMP280;7779;49.596;11.070;2023-11-21T09:38:41;97933.16;;;14.37
15360;BMP280;7779;49.596;11.070;2023-11-21T09:41:21;97930.00;;;14.43
15360;BMP280;7779;49.596;11.070;2023-11-21T09:43:54;97938.47;;;14.44
15360;BMP280;7779;49.596;11.070;2023-11-21T09:46:25;97933.53;;;14.47
15360;BMP280;7779;49.596;11.070;2023-11-21T09:48:54;97928.59;;;14.50
15360;BMP280;7779;49.596;11.070;2023-11-21T09:51:27;97934.63;;;14.55
15360;BMP280;7779;49.596;11.070;2023-11-21T09:53:59;97936.44;;;14.58
15360;BMP280;7779;49.596;11.070;2023-11-21T09:56:25;97932.34;;;14.61
15360;BMP280;7779;49.596;11.070;2023-11-21T09:58:53;97932.44;;;14.64
15360;BMP280;7779;49.596;11.070;2023-11-21T10:01:21;97940.09;;;14.67
15360;BMP280;7779;49.596;11.070;2023-11-21T10:03:48;97925.09;;;14.70
15360;BMP280;7779;49.596;11.070;2023-11-21T10:06:15;97933.66;;;14.75
15360;BMP280;7779;49.596;11.070;2023-11-21T10:08:42;97936.28;;;14.78
15360;BMP280;7779;49.596;11.070;2023-11-21T10:11:09;97933.00;;;14.81
15360;BMP280;7779;49.596;11.070;2023-11-21T10:13:38;97926.38;;;14.84
15360;BMP280;7779;49.596;11.070;2023-11-21T10:16:09;97934.13;;;14.88
15360;BMP280;7779;49.596;11.070;2023-11-21T10:18:38;97930.84;;;14.91
15360;BMP280;7779;49.596;11.070;2023-11-21T10:21:07;97931.72;;;14.93
15360;BMP280;7779;49.596;11.070;2023-11-21T10:23:34;97935.16;;;14.95
15360;BMP280;7779;49.596;11.070;2023-11-21T10:26:01;97937.75;;;14.96
15360;BMP280;7779;49.596;11.070;2023-11-21T10:28:26;97938.63;;;14.97
15360;BMP280;7779;49.596;11.070;2023-11-21T10:30:52;97939.53;;;15.00
15360;BMP280;7779;49.596;11.070;2023-11-21T10:33:27;97938.88;;;15.06
15360;BMP280;7779;49.596;11.070;2023-11-21T10:35:54;97942.38;;;15.09
15360;BMP280;7779;49.596;11.070;2023-11-21T10:38:21;97940.94;;;15.16
15360;BMP280;7779;49.596;11.070;2023-11-21T10:40:49;97939.44;;;15.21
15360;BMP280;7779;49.596;11.070;2023-11-21T10:43:15;97931.16;;;15.24
15360;BMP280;7779;49.596;11.070;2023-11-21T10:45:42;97932.94;;;15.28
15360;BMP280;7779;49.596;11.070;2023-11-21T10:48:15;97936.47;;;15.33
15360;BMP280;7779;49.596;11.070;2023-11-21T10:50:42;97940.75;;;15.36
15360;BMP280;7779;49.596;11.070;2023-11-21T10:53:08;97946.56;;;15.33
15360;BMP280;7779;49.596;11.070;2023-11-21T10:55:34;97941.53;;;15.33
15360;BMP280;7779;49.596;11.070;2023-11-21T10:58:04;97946.56;;;15.33
15360;BMP280;7779;49.596;11.070;2023-11-21T11:00:33;97938.09;;;15.31
15360;BMP280;7779;49.596;11.070;2023-11-21T11:03:00;97951.53;;;15.30
15360;BMP280;7779;49.596;11.070;2023-11-21T11:05:29;97951.44;;;15.27
15360;BMP280;7779;49.596;11.070;2023-11-21T11:08:01;97946.41;;;15.27
15360;BMP280;7779;49.596;11.070;2023-11-21T11:10:29;97948.88;;;15.26
15360;BMP280;7779;49.596;11.070;2023-11-21T11:12:56;97953.03;;;15.25
15360;BMP280;7779;49.596;11.070;2023-11-21T11:15:27;97949.72;;;15.26
15360;BMP280;7779;49.596;11.070;2023-11-21T11:17:55;97954.88;;;15.29
15360;BMP280;7779;49.596;11.070;2023-11-21T11:20:30;97947.31;;;15.31
15360;BMP280;7779;49.596;11.070;2023-11-21T11:34:44;97949.41;;;15.18
15360;BMP280;7779;49.596;11.070;2023-11-21T11:37:12;97949.19;;;15.12
15360;BMP280;7779;49.596;11.070;2023-11-21T11:39:42;97946.63;;;15.10
15360;BMP280;7779;49.596;11.070;2023-11-21T11:42:16;97948.28;;;15.10
15360;BMP280;7779;49.596;11.070;2023-11-21T11:47:25;97952.66;;;15.14
15360;BMP280;7779;49.596;11.070;2023-11-21T11:50:08;97956.09;;;15.16
15360;BMP280;7779;49.596;11.070;2023-11-21T11:52:51;97954.31;;;15.13
15360;BMP280;7779;49.596;11.070;2023-11-21T11:55:20;97956.81;;;15.13
15360;BMP280;7779;49.596;11.070;2023-11-21T11:57:53;97956.09;;;15.16
15360;BMP280;7779;49.596;11.070;2023-11-21T12:00:42;97962.94;;;15.20
15360;BMP280;7779;49.596;11.070;2023-11-21T12:03:09;97963.84;;;15.22
15360;BMP280;7779;49.596;11.070;2023-11-21T12:05:36;97968.09;;;15.23
15360;BMP280;7779;49.596;11.070;2023-11-21T12:08:06;97965.56;;;15.23
15360;BMP280;7779;49.596;11.070;2023-11-21T12:10:34;97962.22;;;15.23
15360;BMP280;7779;49.596;11.070;2023-11-21T12:13:09;97969.78;;;15.23
15360;BMP280;7779;49.596;11.070;2023-11-21T12:15:36;97972.31;;;15.23
15360;BMP280;7779;49.596;11.070;2023-11-21T12:18:03;97964.75;;;15.23
15360;BMP280;7779;49.596;11.070;2023-11-21T12:20:30;97968.00;;;15.20
15360;BMP280;7779;49.596;11.070;2023-11-21T12:22:59;97971.34;;;15.19
15360;BMP280;7779;49.596;11.070;2023-11-21T12:25:30;97967.13;;;15.19
15360;BMP280;7779;49.596;11.070;2023-11-21T12:28:01;97967.91;;;15.17
15360;BMP280;7779;49.596;11.070;2023-11-21T12:30:34;97971.34;;;15.19
15360;BMP280;7779;49.596;11.070;2023-11-21T12:33:02;97975.50;;;15.18
15360;BMP280;7779;49.596;11.070;2023-11-21T12:35:34;97973.81;;;15.17
15360;BMP280;7779;49.596;11.070;2023-11-21T12:38:02;97970.44;;;15.17
15360;BMP280;7779;49.596;11.070;2023-11-21T12:40:29;97972.84;;;15.14
15360;BMP280;7779;49.596;11.070;2023-11-21T12:42:58;97971.97;;;15.13
15360;BMP280;7779;49.596;11.070;2023-11-21T12:45:28;97973.47;;;15.08
15360;BMP280;7779;49.596;11.070;2023-11-21T12:48:00;97971.69;;;15.06
15360;BMP280;7779;49.596;11.070;2023-11-21T12:50:30;97980.88;;;15.04
15360;BMP280;7779;49.596;11.070;2023-11-21T12:53:05;97982.50;;;15.02
15360;BMP280;7779;49.596;11.070;2023-11-21T12:55:35;97990.88;;;15.01
15360;BMP280;7779;49.596;11.070;2023-11-21T12:58:07;97986.75;;;15.03
15360;BMP280;7779;49.596;11.070;2023-11-21T13:00:46;97991.06;;;15.07
15360;BMP280;7779;49.596;11.070;2023-11-21T13:03:14;97992.88;;;15.11
15360;BMP280;7779;49.596;11.070;2023-11-21T13:05:49;97993.78;;;15.13
15360;BMP280;7779;49.596;11.070;2023-11-21T13:08:21;97990.56;;;15.15
15360;BMP280;7779;49.596;11.070;2023-11-21T13:10:54;97993.16;;;15.18
15360;BMP280;7779;49.596;11.070;2023-11-21T13:13:21;97989.91;;;15.21
15360;BMP280;7779;49.596;11.070;2023-11-21T13:16:03;97987.47;;;15.23
15360;BMP280;7779;49.596;11.070;2023-11-21T13:18:34;97997.53;;;15.22
15360;BMP280;7779;49.596;11.070;2023-11-21T13:21:03;97996.66;;;15.22
15360;BMP280;7779;49.596;11.070;2023-11-21T13:23:38;97994.06;;;15.20
15360;BMP280;7779;49.596;11.070;2023-11-21T13:26:04;97993.22;;;15.20
15360;BMP280;7779;49.596;11.070;2023-11-21T13:28:33;97994.94;;;15.21
15360;BMP280;7779;49.596;11.070;2023-11-21T13:31:01;97988.28;;;15.23
15360;BMP280;7779;49.596;11.070;2023-11-21T13:33:35;97995.94;;;15.25
15360;BMP280;7779;49.596;11.070;2023-11-21T13:36:07;98004.56;;;15.32
15360;BMP280;7779;49.596;11.070;2023-11-21T13:38:35;98002.19;;;15.36
15360;BMP280;7779;49.596;11.070;2023-11-21T13:41:03;97992.09;;;15.36
15360;BMP280;7779;49.596;11.070;2023-11-21T13:43:33;97997.13;;;15.35
15360;BMP280;7779;49.596;11.070;2023-11-21T13:45:59;97997.84;;;15.32
15360;BMP280;7779;49.596;11.070;2023-11-21T13:48:34;98001.25;;;15.33
15360;BMP280;7779;49.596;11.070;2023-11-21T13:51:08;98000.38;;;15.32
15360;BMP280;7779;49.596;11.070;2023-11-21T13:53:41;97999.53;;;15.32
15360;BMP280;7779;49.596;11.070;2023-11-21T13:56:08;98006.25;;;15.31
15360;BMP280;7779;49.596;11.070;2023-11-21T13:58:34;98007.03;;;15.30
15360;BMP280;7779;49.596;11.070;2023-11-21T14:01:18;98008.66;;;15.28
15360;BMP280;7779;49.596;11.070;2023-11-21T14:04:01;98005.91;;;15.21
15360;BMP280;7779;49.596;11.070;2023-11-21T14:06:49;98018.16;;;15.12
15360;BMP280;7779;49.596;11.070;2023-11-21T14:09:20;98016.19;;;15.04
15360;BMP280;7779;49.596;11.070;2023-11-21T14:11:55;98021.03;;;14.98
15360;BMP280;7779;49.596;11.070;2023-11-21T14:14:24;98021.53;;;14.88
15360;BMP280;7779;49.596;11.070;2023-11-21T14:16:51;98022.94;;;14.80
15360;BMP280;7779;49.596;11.070;2023-11-21T14:19:18;98033.50;;;14.70
15360;BMP280;7779;49.596;11.070;2023-11-21T14:21:45;98036.63;;;14.63
15360;BMP280;7779;49.596;11.070;2023-11-21T14:24:12;98044.75;;;14.56
15360;BMP280;7779;49.596;11.070;2023-11-21T14:26:42;98034.47;;;14.50